Pedro Canario, Brazil
Current Conditions -  °F | °C
As of 9:00 AM on Monday 20 Oct 2014 (Local Time) from SBPS Reporting Station
Broken Clouds Broken Clouds  
Wind Chill: 81°   Ceiling: 1500
Heat Index: 84°   Visibility: 6mi
Dew Point: 70°   Wind: 10mph
Humidity: 70%   Direction: 20°NNE
Pressure: 29.94"   Gusts: NA
Location:  18.03°S, 40.15°W
Report Text: SBPS 201200Z 02009KT 9999 BKN015 27/21 Q1014
Loading
Personal Weather Stations






























Interactive Weather Map
Tropical Storm Tracking
New forecast layout! Learn more

10-Day Weather Forecast

Advertisements
Track Severe Weather on mobile